createdAt,value
2022-12-31T08:40:14.581Z,1003.01
2022-12-31T08:41:14.532Z,1002.97
2022-12-31T08:42:14.520Z,1003.01
2022-12-31T08:43:14.509Z,1003.01
2022-12-31T08:44:14.492Z,1003.30
2022-12-31T08:45:14.490Z,1003.19
2022-12-31T08:46:14.560Z,1003.14
2022-12-31T08:47:14.454Z,1003.01
2022-12-31T08:48:14.437Z,1003.17
2022-12-31T08:49:14.430Z,1003.16
2022-12-31T08:50:14.428Z,1003.25
2022-12-31T08:51:14.451Z,1003.20
2022-12-31T08:52:14.392Z,1003.12
2022-12-31T08:53:14.394Z,1003.21
2022-12-31T08:54:14.364Z,1003.11
2022-12-31T08:55:14.347Z,1003.18
2022-12-31T08:56:14.365Z,1003.26
2022-12-31T08:57:14.357Z,1003.22
2022-12-31T08:58:14.317Z,1003.21
2022-12-31T08:59:14.316Z,1003.19
2022-12-31T09:00:14.296Z,1003.27
2022-12-31T09:01:14.472Z,1003.10
2022-12-31T09:02:14.340Z,1003.16
2022-12-31T09:03:14.305Z,1003.15
2022-12-31T09:04:14.312Z,1003.11
2022-12-31T09:05:14.258Z,1003.12
2022-12-31T09:06:14.234Z,1003.08
2022-12-31T09:07:14.231Z,1003.08
2022-12-31T09:08:14.203Z,1003.07
2022-12-31T09:09:14.211Z,1003.14
2022-12-31T09:10:14.185Z,1003.18
2022-12-31T09:11:19.205Z,1003.25
2022-12-31T09:12:15.192Z,1003.24
2022-12-31T09:13:14.166Z,1003.24
2022-12-31T09:14:14.177Z,1003.17
2022-12-31T09:15:14.137Z,1003.24
2022-12-31T09:16:14.184Z,1003.28
2022-12-31T09:17:14.113Z,1003.35
2022-12-31T09:18:14.106Z,1003.22
2022-12-31T09:19:14.106Z,1003.33
2022-12-31T09:20:14.102Z,1003.29
2022-12-31T09:21:14.075Z,1003.23
2022-12-31T09:22:14.054Z,1003.32
2022-12-31T09:23:14.061Z,1003.41
2022-12-31T09:24:14.053Z,1003.51
2022-12-31T09:25:14.011Z,1003.38
2022-12-31T09:26:13.996Z,1003.50
2022-12-31T09:27:13.999Z,1003.40
2022-12-31T09:28:14.007Z,1003.49
2022-12-31T09:29:13.971Z,1003.58
2022-12-31T09:30:13.984Z,1003.67
2022-12-31T09:31:14.156Z,1003.58
2022-12-31T09:32:13.933Z,1003.57
2022-12-31T09:33:13.915Z,1003.71
2022-12-31T09:34:13.924Z,1003.67
2022-12-31T09:35:13.909Z,1003.72
2022-12-31T09:36:13.888Z,1003.80
2022-12-31T09:37:13.882Z,1003.71
2022-12-31T09:38:13.880Z,1003.73
2022-12-31T09:39:13.849Z,1003.81
2022-12-31T09:40:13.852Z,1003.66
2022-12-31T09:41:13.872Z,1003.83
2022-12-31T09:42:13.828Z,1003.87
2022-12-31T09:43:13.815Z,1003.87
2022-12-31T09:44:13.843Z,1003.87
2022-12-31T09:45:13.785Z,1003.94
2022-12-31T09:46:13.827Z,1003.91
2022-12-31T09:47:13.775Z,1004.10
2022-12-31T09:48:13.760Z,1003.97
2022-12-31T09:49:13.747Z,1004.01
2022-12-31T09:50:13.726Z,1004.08
2022-12-31T09:51:13.717Z,1004.13
2022-12-31T09:52:13.703Z,1004.06
2022-12-31T09:53:13.704Z,1003.99
2022-12-31T09:54:13.678Z,1004.13
2022-12-31T09:55:13.666Z,1004.14
2022-12-31T09:56:13.673Z,1004.11
2022-12-31T09:57:31.852Z,1004.23
2022-12-31T09:58:14.666Z,1004.18
2022-12-31T09:59:13.628Z,1004.14
2022-12-31T10:00:13.646Z,1004.16
2022-12-31T10:01:13.776Z,1004.14
2022-12-31T10:02:13.930Z,1004.29
2022-12-31T10:03:13.650Z,1004.30
2022-12-31T10:04:13.575Z,1004.30
2022-12-31T10:05:13.561Z,1004.33
2022-12-31T10:06:13.567Z,1004.21
2022-12-31T10:07:13.534Z,1004.24
2022-12-31T10:08:13.585Z,1004.21
2022-12-31T10:09:13.518Z,1004.25
2022-12-31T10:10:13.520Z,1004.26
2022-12-31T10:11:13.505Z,1004.21
2022-12-31T10:12:13.475Z,1004.26
2022-12-31T10:13:13.478Z,1004.27
2022-12-31T10:14:13.470Z,1004.28
2022-12-31T10:15:13.447Z,1004.26
2022-12-31T10:16:13.471Z,1004.31
2022-12-31T10:17:14.554Z,1004.27
2022-12-31T10:18:13.423Z,1004.27
2022-12-31T10:19:13.415Z,1004.30
2022-12-31T10:20:13.405Z,1004.34
2022-12-31T10:21:13.419Z,1004.44
2022-12-31T10:22:13.365Z,1004.36
2022-12-31T10:23:13.367Z,1004.25
2022-12-31T10:24:13.362Z,1004.33
2022-12-31T10:25:13.333Z,1004.29
2022-12-31T10:26:13.375Z,1004.35
2022-12-31T10:27:13.314Z,1004.30
2022-12-31T10:28:13.308Z,1004.26
2022-12-31T10:29:13.302Z,1004.26
2022-12-31T10:30:13.304Z,1004.24
2022-12-31T10:31:13.316Z,1004.24
2022-12-31T10:32:13.283Z,1004.26
2022-12-31T10:33:13.258Z,1004.24
2022-12-31T10:34:13.238Z,1004.25
2022-12-31T10:35:13.230Z,1004.25
2022-12-31T10:36:13.200Z,1004.29
2022-12-31T10:37:13.207Z,1004.20
2022-12-31T10:38:14.183Z,1004.24
2022-12-31T10:39:16.460Z,1004.25
2022-12-31T10:40:14.173Z,1004.32
2022-12-31T10:41:13.191Z,1004.31
2022-12-31T10:42:13.158Z,1004.33
2022-12-31T10:43:13.141Z,1004.39
2022-12-31T10:44:13.115Z,1004.31
2022-12-31T10:45:13.121Z,1004.36
2022-12-31T10:46:16.342Z,1004.34
2022-12-31T10:47:14.149Z,1004.43
2022-12-31T10:48:13.113Z,1004.39
2022-12-31T10:49:13.075Z,1004.44
2022-12-31T10:50:13.046Z,1004.47
2022-12-31T10:51:13.045Z,1004.46
2022-12-31T10:52:13.034Z,1004.46
2022-12-31T10:53:13.032Z,1004.55
2022-12-31T10:54:13.000Z,1004.53
2022-12-31T10:55:12.992Z,1004.48
2022-12-31T10:56:12.975Z,1004.53
2022-12-31T10:57:12.985Z,1004.54
2022-12-31T10:58:16.084Z,1004.63
2022-12-31T10:59:12.960Z,1004.57
2022-12-31T11:00:12.936Z,1004.61
2022-12-31T11:01:13.101Z,1004.45
2022-12-31T11:02:13.117Z,1004.50
2022-12-31T11:03:12.970Z,1004.44
2022-12-31T11:04:12.916Z,1004.48
2022-12-31T11:05:12.878Z,1004.51
2022-12-31T11:06:12.878Z,1004.31
2022-12-31T11:07:12.859Z,1004.39
2022-12-31T11:08:12.877Z,1004.51
2022-12-31T11:09:12.839Z,1004.42
2022-12-31T11:10:12.827Z,1004.48
2022-12-31T11:11:12.814Z,1004.45
2022-12-31T11:12:13.793Z,1004.43
2022-12-31T11:13:12.789Z,1004.60
2022-12-31T11:14:12.800Z,1004.46
2022-12-31T11:15:12.775Z,1004.57
2022-12-31T11:16:12.784Z,1004.53
2022-12-31T11:17:12.742Z,1004.54
2022-12-31T11:18:12.730Z,1004.57
2022-12-31T11:19:12.761Z,1004.62
2022-12-31T11:20:12.741Z,1004.53
2022-12-31T11:21:12.707Z,1004.57
2022-12-31T11:22:12.698Z,1004.51
2022-12-31T11:23:12.692Z,1004.65
2022-12-31T11:24:12.685Z,1004.58
2022-12-31T11:25:12.663Z,1004.48
2022-12-31T11:26:12.649Z,1004.42
2022-12-31T11:27:13.547Z,1004.45
2022-12-31T11:28:12.638Z,1004.53
2022-12-31T11:29:12.617Z,1004.58
2022-12-31T11:30:12.652Z,1004.44
2022-12-31T11:31:12.662Z,1004.48
2022-12-31T11:32:12.570Z,1004.49
2022-12-31T11:33:12.584Z,1004.38
2022-12-31T11:34:12.578Z,1004.38
2022-12-31T11:35:12.578Z,1004.42
2022-12-31T11:36:12.583Z,1004.45
2022-12-31T11:37:12.514Z,1004.46
2022-12-31T11:38:12.506Z,1004.35
2022-12-31T11:39:12.495Z,1004.30
2022-12-31T11:40:12.495Z,1004.33
2022-12-31T11:41:12.470Z,1004.36
2022-12-31T11:42:12.483Z,1004.38
2022-12-31T11:43:12.449Z,1004.45
2022-12-31T11:44:12.431Z,1004.27
2022-12-31T11:45:12.441Z,1004.26
2022-12-31T11:46:12.481Z,1004.29
2022-12-31T11:47:12.435Z,1004.36
2022-12-31T11:49:13.382Z,1004.29
2022-12-31T11:50:12.378Z,1004.29
2022-12-31T11:51:12.373Z,1004.39
2022-12-31T11:52:15.067Z,1004.32
2022-12-31T11:53:12.335Z,1004.30
2022-12-31T11:54:12.321Z,1004.22
2022-12-31T11:55:12.315Z,1004.29
2022-12-31T11:56:12.309Z,1004.27
2022-12-31T11:57:12.314Z,1004.26
2022-12-31T11:58:12.289Z,1004.13
2022-12-31T11:59:19.024Z,1004.25
2022-12-31T12:00:13.302Z,1004.33
2022-12-31T12:01:12.264Z,1004.20
2022-12-31T12:02:12.244Z,1004.14
2022-12-31T12:03:12.330Z,1004.29
2022-12-31T12:04:12.254Z,1004.27
2022-12-31T12:05:12.227Z,1004.16
2022-12-31T12:06:12.202Z,1004.14
2022-12-31T12:07:16.690Z,1004.22
2022-12-31T12:08:43.071Z,1004.18
2022-12-31T12:10:29.266Z,1004.20
2022-12-31T12:11:26.434Z,1004.02
2022-12-31T12:12:25.419Z,1003.99
2022-12-31T12:13:25.449Z,1004.18
2022-12-31T12:14:25.392Z,1004.09
2022-12-31T12:15:25.381Z,1004.25
2022-12-31T12:16:25.427Z,1004.13
2022-12-31T12:17:25.363Z,1004.19
2022-12-31T12:18:25.335Z,1004.57
2022-12-31T12:19:25.357Z,1004.17
2022-12-31T12:20:25.320Z,1004.31
2022-12-31T12:21:25.305Z,1004.20
2022-12-31T12:22:25.338Z,1004.29
2022-12-31T12:23:26.304Z,1004.15
2022-12-31T12:24:25.277Z,1004.21
2022-12-31T12:25:25.293Z,1004.20
2022-12-31T12:26:25.259Z,1004.29
2022-12-31T12:27:25.258Z,1004.25
2022-12-31T12:28:25.220Z,1004.31
2022-12-31T12:29:25.231Z,1004.32
2022-12-31T12:30:25.220Z,1004.18
2022-12-31T12:31:25.212Z,1004.31
2022-12-31T12:32:25.186Z,1004.16
2022-12-31T12:33:25.173Z,1004.23
2022-12-31T12:34:25.159Z,1004.09
2022-12-31T12:35:25.166Z,1004.08
2022-12-31T12:36:25.144Z,1004.05
2022-12-31T12:37:25.156Z,1004.14
2022-12-31T12:38:25.158Z,1004.11
2022-12-31T12:39:25.131Z,1004.02
2022-12-31T12:40:33.095Z,1004.01
2022-12-31T12:41:26.099Z,1004.06
2022-12-31T12:42:25.086Z,1004.12
2022-12-31T12:43:25.056Z,1004.01
2022-12-31T12:44:25.042Z,1004.12
2022-12-31T12:45:25.054Z,1004.07
2022-12-31T12:46:25.036Z,1003.94
2022-12-31T12:47:25.023Z,1003.98
2022-12-31T12:48:24.995Z,1004.16
2022-12-31T12:49:25.986Z,1004.02
2022-12-31T12:50:24.977Z,1004.06
2022-12-31T12:51:24.991Z,1004.18
2022-12-31T12:52:24.967Z,1004.18
2022-12-31T12:53:24.942Z,1004.14
2022-12-31T12:54:24.946Z,1004.23
2022-12-31T12:55:24.918Z,1004.14
2022-12-31T12:56:24.919Z,1004.22
2022-12-31T12:57:24.918Z,1004.28
2022-12-31T12:58:24.881Z,1004.24
2022-12-31T12:59:24.888Z,1004.18
2022-12-31T13:00:24.861Z,1004.32
2022-12-31T13:01:25.044Z,1004.26
2022-12-31T13:02:24.981Z,1004.30
2022-12-31T13:03:24.830Z,1004.40
2022-12-31T13:04:40.200Z,1004.41
2022-12-31T13:05:28.220Z,1004.58
2022-12-31T13:06:24.812Z,1004.59
2022-12-31T13:07:24.786Z,1004.60
2022-12-31T13:08:24.771Z,1004.65
2022-12-31T13:09:24.778Z,1004.55
2022-12-31T13:10:24.784Z,1004.48
2022-12-31T13:11:24.758Z,1004.59
2022-12-31T13:12:24.743Z,1004.64
2022-12-31T13:13:25.702Z,1004.62
2022-12-31T13:14:24.731Z,1004.50
2022-12-31T13:15:24.714Z,1004.48
2022-12-31T13:16:24.698Z,1004.54
2022-12-31T13:17:24.714Z,1004.48
2022-12-31T13:18:24.671Z,1004.58
2022-12-31T13:19:24.667Z,1004.56
2022-12-31T13:20:24.649Z,1004.56
2022-12-31T13:21:24.643Z,1004.61
2022-12-31T13:22:24.611Z,1004.63
2022-12-31T13:23:24.617Z,1004.73
2022-12-31T13:24:24.607Z,1004.73
2022-12-31T13:25:24.592Z,1004.70
2022-12-31T13:26:24.600Z,1004.88
2022-12-31T13:27:24.683Z,1004.92
2022-12-31T13:28:38.287Z,1004.91
2022-12-31T13:29:24.539Z,1004.87
2022-12-31T13:30:24.534Z,1004.81
2022-12-31T13:31:24.574Z,1004.86
2022-12-31T13:32:24.511Z,1004.89
2022-12-31T13:33:24.510Z,1004.77
2022-12-31T13:34:24.505Z,1004.77
2022-12-31T13:35:24.483Z,1004.85
2022-12-31T13:36:24.454Z,1004.84
2022-12-31T13:37:24.458Z,1004.83
2022-12-31T13:38:55.186Z,1004.95
2022-12-31T13:39:24.435Z,1004.88
2022-12-31T13:40:24.427Z,1004.83
2022-12-31T13:41:24.417Z,1004.87
2022-12-31T13:42:24.424Z,1004.90
2022-12-31T13:43:24.375Z,1004.74
2022-12-31T13:44:24.397Z,1004.74
2022-12-31T13:45:24.480Z,1004.81
2022-12-31T13:46:24.349Z,1004.96
2022-12-31T13:47:24.341Z,1004.84
2022-12-31T13:52:04.172Z,1004.76
2022-12-31T13:53:04.115Z,1004.74
2022-12-31T13:54:04.108Z,1004.88
2022-12-31T13:55:04.122Z,1004.83
2022-12-31T13:56:04.102Z,1004.79
2022-12-31T13:57:04.085Z,1004.78
2022-12-31T13:58:04.087Z,1004.89
2022-12-31T13:59:04.062Z,1004.75
2022-12-31T14:00:04.072Z,1004.83
2022-12-31T14:01:04.143Z,1004.85
2022-12-31T14:02:04.170Z,1004.85
2022-12-31T14:03:04.100Z,1004.83
2022-12-31T14:04:04.001Z,1004.77
2022-12-31T14:05:03.985Z,1004.79
2022-12-31T14:06:04.001Z,1004.72
2022-12-31T14:07:03.960Z,1004.69
2022-12-31T14:08:03.964Z,1004.64
2022-12-31T14:09:03.953Z,1004.68
2022-12-31T14:10:03.928Z,1004.54
2022-12-31T14:11:03.941Z,1004.50
2022-12-31T14:12:03.921Z,1004.42
2022-12-31T14:13:03.891Z,1004.41
2022-12-31T14:14:03.904Z,1004.45
2022-12-31T14:15:03.879Z,1004.50
2022-12-31T14:16:03.954Z,1004.52
2022-12-31T14:17:03.862Z,1004.58
2022-12-31T14:18:03.879Z,1004.56
2022-12-31T14:19:03.823Z,1004.60
2022-12-31T14:20:03.830Z,1004.60
2022-12-31T14:21:03.815Z,1004.59
2022-12-31T14:22:03.824Z,1004.66
2022-12-31T14:23:03.806Z,1004.60
2022-12-31T14:24:03.781Z,1004.59
2022-12-31T14:25:03.761Z,1004.58
2022-12-31T14:26:03.757Z,1004.57
2022-12-31T14:27:03.741Z,1004.51
2022-12-31T14:28:03.758Z,1004.49
2022-12-31T14:29:03.719Z,1004.47
2022-12-31T14:30:03.720Z,1004.47
2022-12-31T14:31:03.694Z,1004.46
2022-12-31T14:32:03.744Z,1004.47
2022-12-31T14:33:03.696Z,1004.40
2022-12-31T14:34:03.669Z,1004.48
2022-12-31T14:35:03.665Z,1004.37
2022-12-31T14:36:09.982Z,1004.32
2022-12-31T14:37:04.641Z,1004.36
2022-12-31T14:38:03.630Z,1004.37
2022-12-31T14:39:03.618Z,1004.36
2022-12-31T14:40:03.714Z,1004.32
2022-12-31T14:41:03.578Z,1004.35
2022-12-31T14:42:03.568Z,1004.38
2022-12-31T14:43:03.579Z,1004.40
2022-12-31T14:44:03.559Z,1004.35
2022-12-31T14:45:03.548Z,1004.39
2022-12-31T14:46:03.631Z,1004.43
2022-12-31T14:47:03.524Z,1004.45
2022-12-31T14:48:03.511Z,1004.45
2022-12-31T14:49:03.540Z,1004.43
2022-12-31T14:50:03.638Z,1004.32
2022-12-31T14:51:03.483Z,1004.42
2022-12-31T14:52:03.468Z,1004.32
2022-12-31T14:53:03.495Z,1004.29
2022-12-31T14:54:03.443Z,1004.59
2022-12-31T14:55:03.453Z,1004.49
2022-12-31T14:56:03.422Z,1004.46
2022-12-31T14:57:03.398Z,1004.38
2022-12-31T14:58:32.083Z,1004.48
2022-12-31T14:59:04.398Z,1004.47
2022-12-31T15:00:03.482Z,1004.38
2022-12-31T15:01:03.554Z,1004.35
2022-12-31T15:02:03.728Z,1004.35
2022-12-31T15:03:03.414Z,1004.34
2022-12-31T15:04:03.333Z,1004.42
2022-12-31T15:05:03.346Z,1004.31
2022-12-31T15:06:03.310Z,1004.34
2022-12-31T15:07:03.306Z,1004.36
2022-12-31T15:08:04.299Z,1004.47
2022-12-31T15:09:07.935Z,1004.38
2022-12-31T15:10:04.296Z,1004.52
2022-12-31T15:11:03.256Z,1004.46
2022-12-31T15:12:03.229Z,1004.54
2022-12-31T15:13:03.234Z,1004.54
2022-12-31T15:14:03.240Z,1004.73
2022-12-31T15:15:03.214Z,1004.52
2022-12-31T15:16:03.211Z,1004.55
2022-12-31T15:17:03.258Z,1004.61
2022-12-31T15:18:03.199Z,1004.61
2022-12-31T15:19:03.163Z,1004.86
2022-12-31T15:20:03.141Z,1004.53
2022-12-31T15:21:03.166Z,1004.61
2022-12-31T15:22:03.114Z,1004.69
2022-12-31T15:23:03.124Z,1004.74
2022-12-31T15:24:03.091Z,1004.82
2022-12-31T15:25:03.101Z,1004.78
2022-12-31T15:26:03.120Z,1004.73
2022-12-31T15:27:03.098Z,1004.73
2022-12-31T15:28:03.066Z,1004.71
2022-12-31T15:29:04.056Z,1004.78
2022-12-31T15:30:03.024Z,1004.83
2022-12-31T15:31:03.047Z,1004.89
2022-12-31T15:32:03.025Z,1004.80
2022-12-31T15:33:02.995Z,1004.81
2022-12-31T15:34:03.025Z,1004.82
2022-12-31T15:35:03.013Z,1004.96
2022-12-31T15:36:02.957Z,1004.93
2022-12-31T15:37:02.965Z,1004.84
2022-12-31T15:38:02.953Z,1005.03
2022-12-31T15:39:03.941Z,1004.94
2022-12-31T15:40:02.932Z,1004.89
2022-12-31T15:41:02.923Z,1004.89
2022-12-31T15:42:36.785Z,1004.81
2022-12-31T15:43:03.937Z,1004.90
2022-12-31T15:44:02.879Z,1004.81
2022-12-31T15:45:02.878Z,1004.91
2022-12-31T15:46:02.905Z,1004.83
2022-12-31T15:47:02.840Z,1005.06
2022-12-31T15:48:02.852Z,1005.11
2022-12-31T15:49:05.967Z,1005.05
2022-12-31T15:50:03.841Z,1004.90
2022-12-31T15:51:02.829Z,1004.79
2022-12-31T15:52:03.778Z,1004.93
2022-12-31T15:53:02.803Z,1004.83
2022-12-31T15:54:02.778Z,1004.95
